Time;durP1;ratioP1;P1;durP2;ratioP2;P2;SDS_P1;SDS_P2;PMS_P1;PMS_P2;Temp;Humidity;BMP_temperature;BMP_pressure;BME280_temperature;BME280_humidity;BME280_pressure;Samples;Min_cycle;Max_cycle;Signal;HPM_P1;HPM_P2
2022/11/01 00:01:03;;;;;;;;;;;;;;;10.92;100.00;100463.41;4977159;28;19918;-83
2022/11/01 00:03:29;;;;;;;;;;;;;;;10.90;100.00;100460.31;4973144;28;19918;-83
2022/11/01 00:05:54;;;;;;;;;;;;;;;10.86;100.00;100459.59;4959448;28;20550;-83
2022/11/01 00:08:19;;;;;;;;;;;;;;;10.81;100.00;100451.75;4955500;28;19918;-83
2022/11/01 00:10:44;;;;;;;;;;;;;;;10.79;100.00;100462.53;4954931;28;19918;-83
2022/11/01 00:13:10;;;;;;;;;;;;;;;10.74;100.00;100463.81;4972121;28;20005;-83
2022/11/01 00:15:35;;;;;;;;;;;;;;;10.71;100.00;100452.78;4968928;28;20005;-83
2022/11/01 00:18:00;;;;;;;;;;;;;;;10.62;100.00;100452.56;4984490;28;20577;-83
2022/11/01 00:20:26;;;;;;;;;;;;;;;10.67;100.00;100463.16;4973029;28;19918;-83
2022/11/01 00:22:51;;;;;;;;;;;;;;;10.61;100.00;100439.91;4954157;28;20005;-83
2022/11/01 00:25:16;;;;;;;;;;;;;;;10.60;100.00;100461.31;4971738;28;19918;-83
2022/11/01 00:27:42;;;;;;;;;;;;;;;10.60;100.00;100441.09;4954754;28;19932;-83
2022/11/01 00:30:07;;;;;;;;;;;;;;;10.61;100.00;100451.78;4955192;28;19954;-83
2022/11/01 00:32:32;;;;;;;;;;;;;;;10.59;100.00;100451.44;4974559;28;19922;-83
2022/11/01 00:34:58;;;;;;;;;;;;;;;10.65;100.00;100448.94;4957011;28;19924;-83
2022/11/01 00:37:23;;;;;;;;;;;;;;;10.59;100.00;100456.19;4973265;28;19918;-85
2022/11/01 00:39:48;;;;;;;;;;;;;;;10.58;100.00;100443.53;4972995;28;19918;-84
2022/11/01 00:42:14;;;;;;;;;;;;;;;10.56;100.00;100449.50;4973171;28;19922;-84
2022/11/01 00:44:39;;;;;;;;;;;;;;;10.57;100.00;100450.28;4974028;28;19918;-84
2022/11/01 00:47:04;;;;;;;;;;;;;;;10.58;100.00;100438.00;4971767;28;20284;-85
2022/11/01 00:49:32;;;;;;;;;;;;;;;10.58;100.00;100438.00;4965368;28;20020;-85
2022/11/01 00:51:57;;;;;;;;;;;;;;;10.61;100.00;100439.91;4963665;28;20352;-84
2022/11/01 00:54:23;;;;;;;;;;;;;;;10.61;100.00;100448.22;4950671;28;19982;-84
2022/11/01 00:56:48;;;;;;;;;;;;;;;10.58;100.00;100451.84;4971512;28;19925;-85
2022/11/01 00:59:13;;;;;;;;;;;;;;;10.61;100.00;100448.22;4952354;28;19922;-83
2022/11/01 01:01:39;;;;;;;;;;;;;;;10.63;100.00;100446.59;4957350;28;19928;-84
2022/11/01 01:04:04;;;;;;;;;;;;;;;10.60;100.00;100441.09;4969265;28;20017;-84
2022/11/01 01:06:29;;;;;;;;;;;;;;;10.60;100.00;100441.09;4938887;28;19957;-83
2022/11/01 01:08:59;;;;;;;;;;;;;;;10.60;100.00;100424.47;4952569;28;19926;-83
2022/11/01 01:11:25;;;;;;;;;;;;;;;10.56;100.00;100418.19;4965498;28;20406;-83
2022/11/01 01:13:50;;;;;;;;;;;;;;;10.55;100.00;100433.31;4965330;28;19918;-83
2022/11/01 01:16:15;;;;;;;;;;;;;;;10.54;100.00;100426.19;4976255;28;19922;-84
2022/11/01 01:18:41;;;;;;;;;;;;;;;10.53;100.00;100419.06;4994204;28;19917;-84
2022/11/01 01:21:06;;;;;;;;;;;;;;;10.54;100.00;100420.63;4987303;28;19921;-84
2022/11/01 01:23:31;;;;;;;;;;;;;;;10.54;100.00;100418.66;4999006;28;19957;-83
2022/11/01 01:25:57;;;;;;;;;;;;;;;10.52;100.00;100414.72;4997521;28;19944;-83
2022/11/01 01:28:22;;;;;;;;;;;;;;;10.50;100.00;100412.38;4978907;28;19925;-83
2022/11/01 01:30:47;;;;;;;;;;;;;;;10.49;100.00;100410.81;5000402;28;19928;-83
2022/11/01 01:33:13;;;;;;;;;;;;;;;10.53;100.00;100413.50;4981021;28;20019;-83
2022/11/01 01:35:38;;;;;;;;;;;;;;;10.52;100.00;100418.28;4967411;28;20307;-83
2022/11/01 01:38:04;;;;;;;;;;;;;;;10.53;100.00;100419.06;4986987;28;19970;-83
2022/11/01 01:40:30;;;;;;;;;;;;;;;10.52;100.00;100407.19;4990568;28;19940;-83
2022/11/01 01:42:55;;;;;;;;;;;;;;;10.52;100.00;100404.41;4984118;28;19928;-83
2022/11/01 01:45:35;;;;;;;;;;;;;;;10.54;100.00;100410.31;5002447;28;19917;-83
2022/11/01 01:48:05;;;;;;;;;;;;;;;10.51;100.00;100410.41;4991605;28;19927;-83
2022/11/01 01:50:35;;;;;;;;;;;;;;;10.49;100.00;100401.72;4994950;28;19924;-83
2022/11/01 01:53:04;;;;;;;;;;;;;;;10.48;100.00;100409.25;4977497;28;19917;-85
2022/11/01 01:55:32;;;;;;;;;;;;;;;10.46;100.00;100413.66;4978404;28;19972;-85
2022/11/01 01:57:57;;;;;;;;;;;;;;;10.47;100.00;100420.78;4978563;28;19960;-85
2022/11/01 02:00:23;;;;;;;;;;;;;;;10.48;100.00;100406.47;4978036;28;19964;-84
2022/11/01 02:02:48;;;;;;;;;;;;;;;10.53;100.00;100403.22;5256969;23;19953;-78
2022/11/01 02:05:25;;;;;;;;;;;;;;;10.56;100.00;100401.56;5026011;28;19925;-78
2022/11/01 02:07:50;;;;;;;;;;;;;;;10.48;100.00;100394.59;5013580;28;19924;-78
2022/11/01 02:10:16;;;;;;;;;;;;;;;10.46;100.00;100394.25;5020766;28;19921;-78
2022/11/01 02:12:46;;;;;;;;;;;;;;;10.41;100.00;100394.75;5027142;28;20115;-80
2022/11/01 02:15:12;;;;;;;;;;;;;;;10.41;100.00;100391.97;5005989;28;20423;-79
2022/11/01 02:18:04;;;;;;;;;;;;;;;10.38;100.00;100395.59;5026164;28;19968;-79
2022/11/01 02:20:35;;;;;;;;;;;;;;;10.36;100.00;100400.78;5011076;28;19921;-79
2022/11/01 02:23:19;;;;;;;;;;;;;;;10.36;100.00;100392.47;5021677;28;19917;-79
2022/11/01 02:25:57;;;;;;;;;;;;;;;10.32;100.00;100386.22;5025753;28;19943;-79
2022/11/01 02:28:22;;;;;;;;;;;;;;;10.33;100.00;100390.56;5029237;28;19917;-79
2022/11/01 02:30:51;;;;;;;;;;;;;;;10.29;100.00;100387.84;5022131;28;19971;-79
2022/11/01 02:33:16;;;;;;;;;;;;;;;10.27;100.00;100382.72;5030692;28;19917;-79
2022/11/01 02:35:41;;;;;;;;;;;;;;;10.27;100.00;100379.94;5045403;28;20295;-79
2022/11/01 02:38:27;;;;;;;;;;;;;;;10.26;100.00;100378.41;5029553;28;20372;-79
2022/11/01 02:40:54;;;;;;;;;;;;;;;10.22;100.00;100377.69;5020525;28;20438;-79
2022/11/01 02:43:21;;;;;;;;;;;;;;;10.22;100.00;100377.69;5033871;28;20063;-78
2022/11/01 02:45:47;;;;;;;;;;;;;;;10.16;100.00;100376.63;5016089;28;20523;-79
2022/11/01 02:48:12;;;;;;;;;;;;;;;10.15;100.00;100388.91;5029079;28;19999;-79
2022/11/01 02:50:39;;;;;;;;;;;;;;;10.18;100.00;100388.06;5028990;28;19931;-78
2022/11/01 02:53:04;;;;;;;;;;;;;;;10.17;100.00;100391.25;5016302;28;20303;-79
2022/11/01 02:55:30;;;;;;;;;;;;;;;10.13;100.00;100396.84;5030406;28;19920;-79
2022/11/01 02:57:56;;;;;;;;;;;;;;;10.15;100.00;100397.22;5010574;28;19998;-79
2022/11/01 03:00:22;;;;;;;;;;;;;;;10.18;100.00;100403.91;5023903;28;20007;-79
2022/11/01 03:02:48;;;;;;;;;;;;;;;10.18;100.00;100393.63;5014643;28;19922;-79
2022/11/01 03:05:16;;;;;;;;;;;;;;;10.15;100.00;100388.16;4989059;28;20411;-79
2022/11/01 03:07:42;;;;;;;;;;;;;;;10.14;100.00;100386.53;4991282;28;20368;-79
2022/11/01 03:10:07;;;;;;;;;;;;;;;10.13;100.00;100390.53;4988972;28;19968;-79
2022/11/01 03:12:34;;;;;;;;;;;;;;;10.11;100.00;100384.63;5004127;28;19920;-78
2022/11/01 03:14:59;;;;;;;;;;;;;;;10.11;100.00;100377.06;5010421;28;19921;-78
2022/11/01 03:17:37;;;;;;;;;;;;;;;10.13;100.00;100379.44;5006831;28;20332;-78
2022/11/01 03:20:07;;;;;;;;;;;;;;;10.13;100.00;100374.66;5010548;28;19920;-78
2022/11/01 03:22:33;;;;;;;;;;;;;;;10.10;100.00;100381.06;4989076;28;20615;-78
2022/11/01 03:25:38;;;;;;;;;;;;;;;10.10;100.00;100363.66;5004040;28;20312;-78
2022/11/01 03:28:00;;;;;;;;;;;;;;;10.14;100.00;100373.47;5007737;28;20388;-78
2022/11/01 03:30:25;;;;;;;;;;;;;;;10.11;100.00;100377.06;5003065;28;19917;-78
2022/11/01 03:32:52;;;;;;;;;;;;;;;10.13;100.00;100373.88;5005272;28;19919;-79
2022/11/01 03:35:18;;;;;;;;;;;;;;;10.14;100.00;100372.69;4987923;28;19968;-79
2022/11/01 03:37:44;;;;;;;;;;;;;;;10.07;100.00;100364.50;4987898;28;19917;-78
2022/11/01 03:40:10;;;;;;;;;;;;;;;10.11;100.00;100357.66;4989681;28;19932;-79
2022/11/01 03:42:35;;;;;;;;;;;;;;;10.08;100.00;100361.31;4987873;28;19922;-79
2022/11/01 03:45:02;;;;;;;;;;;;;;;10.09;100.00;100373.97;4988133;28;19917;-79
2022/11/01 03:47:28;;;;;;;;;;;;;;;10.09;100.00;100360.09;5010164;28;19921;-78
2022/11/01 03:50:09;;;;;;;;;;;;;;;10.06;100.00;100362.94;4969737;28;19933;-78
2022/11/01 03:52:35;;;;;;;;;;;;;;;10.07;100.00;100370.81;4987888;28;20012;-78
2022/11/01 03:55:16;;;;;;;;;;;;;;;10.09;100.00;100370.41;4988099;28;20065;-78
2022/11/01 03:57:42;;;;;;;;;;;;;;;10.08;100.00;100372.38;5009044;28;20377;-78
2022/11/01 04:00:08;;;;;;;;;;;;;;;10.03;100.00;100364.56;4987964;28;19928;-79
2022/11/01 04:02:37;;;;;;;;;;;;;;;10.04;100.00;100362.56;5006182;28;19991;-79
2022/11/01 04:05:03;;;;;;;;;;;;;;;10.01;100.00;100367.00;5007745;28;20416;-78
2022/11/01 04:07:28;;;;;;;;;;;;;;;10.02;100.00;100368.56;5005061;28;19924;-79
2022/11/01 04:09:54;;;;;;;;;;;;;;;10.03;100.00;100364.56;4997462;28;20000;-79
2022/11/01 04:12:19;;;;;;;;;;;;;;;10.03;100.00;100359.00;5005443;28;19917;-78
2022/11/01 04:22:56;;;;;;;;;;;;;;;10.00;100.00;100351.56;5006812;28;19922;-79
2022/11/01 04:25:21;;;;;;;;;;;;;;;9.99;100.00;100352.75;4990434;28;19940;-78
2022/11/01 04:27:47;;;;;;;;;;;;;;;10.00;100.00;100354.34;5010417;28;19917;-78
2022/11/01 04:30:12;;;;;;;;;;;;;;;10.02;100.00;100354.69;5010525;28;19975;-78
2022/11/01 04:32:41;;;;;;;;;;;;;;;10.01;100.00;100350.34;5006559;28;20024;-78
2022/11/01 04:35:06;;;;;;;;;;;;;;;10.01;100.00;100350.34;5011005;28;19963;-79
2022/11/01 04:37:31;;;;;;;;;;;;;;;10.01;100.00;100353.13;5004381;28;19960;-79
2022/11/01 04:39:57;;;;;;;;;;;;;;;10.03;100.00;100353.47;4990379;28;20000;-79
2022/11/01 04:42:22;;;;;;;;;;;;;;;10.03;100.00;100350.69;5008950;28;19924;-79
2022/11/01 04:44:48;;;;;;;;;;;;;;;10.02;100.00;100356.69;5007476;28;19924;-78
2022/11/01 04:47:13;;;;;;;;;;;;;;;9.98;100.00;100351.22;5011574;28;20005;-77
2022/11/01 04:49:39;;;;;;;;;;;;;;;10.02;100.00;100357.47;5013624;28;19917;-78
2022/11/01 04:52:04;;;;;;;;;;;;;;;10.03;100.00;100347.19;4990871;28;19979;-78
2022/11/01 04:54:32;;;;;;;;;;;;;;;10.01;100.00;100353.13;5009053;28;19917;-78
2022/11/01 04:56:57;;;;;;;;;;;;;;;10.02;100.00;100354.69;5004015;28;20313;-79
2022/11/01 04:59:23;;;;;;;;;;;;;;;10.01;100.00;100353.13;5010238;28;19913;-79
2022/11/01 05:01:48;;;;;;;;;;;;;;;10.02;100.00;100351.94;5002325;28;19925;-78
2022/11/01 05:04:13;;;;;;;;;;;;;;;10.02;100.00;100348.38;5007679;28;19917;-79
2022/11/01 05:06:39;;;;;;;;;;;;;;;10.02;100.00;100356.69;5006063;28;19930;-79
2022/11/01 05:09:04;;;;;;;;;;;;;;;10.01;100.00;100339.28;5004107;28;19925;-79
2022/11/01 05:11:30;;;;;;;;;;;;;;;9.99;100.00;100352.75;5011312;28;19921;-78
2022/11/01 05:13:55;;;;;;;;;;;;;;;9.98;100.00;100351.22;5007530;28;20296;-79
2022/11/01 05:16:21;;;;;;;;;;;;;;;9.95;100.00;100346.50;5007794;28;20296;-79
2022/11/01 05:18:46;;;;;;;;;;;;;;;9.97;100.00;100349.66;4986720;28;19929;-78
2022/11/01 05:21:12;;;;;;;;;;;;;;;9.93;100.00;100348.94;5006461;28;19976;-79
2022/11/01 05:23:37;;;;;;;;;;;;;;;9.95;100.00;100345.75;5008295;28;19917;-79
2022/11/01 05:26:02;;;;;;;;;;;;;;;9.98;100.00;100359.53;5006700;28;19921;-78
2022/11/01 05:28:28;;;;;;;;;;;;;;;9.97;100.00;100354.41;5010975;28;19917;-78
2022/11/01 05:30:53;;;;;;;;;;;;;;;9.96;100.00;100352.84;5011944;28;19926;-79
2022/11/01 05:33:18;;;;;;;;;;;;;;;9.93;100.00;100343.38;4986047;28;19933;-79
2022/11/01 05:35:44;;;;;;;;;;;;;;;9.91;100.00;100356.88;5010040;23;19983;-80
2022/11/01 05:38:09;;;;;;;;;;;;;;;9.89;100.00;100364.84;4986540;28;19930;-80
2022/11/01 05:40:35;;;;;;;;;;;;;;;9.91;100.00;100361.66;4985817;28;19953;-81
2022/11/01 05:43:00;;;;;;;;;;;;;;;9.90;100.00;100360.88;4973271;28;20000;-81
2022/11/01 05:45:25;;;;;;;;;;;;;;;9.89;100.00;100359.31;4991112;28;20142;-81
2022/11/01 05:47:51;;;;;;;;;;;;;;;9.94;100.00;100356.03;5007885;28;19921;-81
2022/11/01 05:50:16;;;;;;;;;;;;;;;9.91;100.00;100353.34;4997175;28;20325;-81
2022/11/01 05:52:42;;;;;;;;;;;;;;;9.97;100.00;100351.63;4985423;28;19924;-81
2022/11/01 05:55:08;;;;;;;;;;;;;;;9.98;100.00;100351.22;4985370;28;20017;-81
2022/11/01 05:57:33;;;;;;;;;;;;;;;9.97;100.00;100354.41;4984688;28;20000;-81
2022/11/01 05:59:59;;;;;;;;;;;;;;;9.92;100.00;100330.72;4991208;28;20017;-81
2022/11/01 06:02:24;;;;;;;;;;;;;;;9.94;100.00;100355.25;4989648;28;20288;-81
2022/11/01 06:04:50;;;;;;;;;;;;;;;9.96;100.00;100350.84;4968656;28;19918;-82
2022/11/01 06:07:15;;;;;;;;;;;;;;;10.00;100.00;100348.78;5000370;28;19922;-81
2022/11/01 06:09:40;;;;;;;;;;;;;;;9.99;100.00;100340.91;4989351;28;20408;-82
2022/11/01 06:12:06;;;;;;;;;;;;;;;9.98;100.00;100362.31;4986207;28;19921;-81
2022/11/01 06:14:31;;;;;;;;;;;;;;;9.96;100.00;100347.28;4974897;28;20289;-81
2022/11/01 06:16:57;;;;;;;;;;;;;;;9.98;100.00;100359.53;4985244;28;20381;-82
2022/11/01 06:19:22;;;;;;;;;;;;;;;9.98;100.00;100361.50;4985433;28;19918;-80
2022/11/01 06:21:48;;;;;;;;;;;;;;;9.98;100.00;100356.75;4985250;28;19917;-81
2022/11/01 06:24:13;;;;;;;;;;;;;;;9.96;100.00;100359.16;4985387;28;19968;-81
2022/11/01 06:26:38;;;;;;;;;;;;;;;9.96;100.00;100358.38;4983236;28;19939;-82
2022/11/01 06:29:04;;;;;;;;;;;;;;;10.00;100.00;100365.41;4970974;28;19929;-81
2022/11/01 06:31:29;;;;;;;;;;;;;;;10.02;100.00;100360.25;4972570;28;20274;-81
2022/11/01 06:33:55;;;;;;;;;;;;;;;10.05;100.00;100369.69;4983262;28;19922;-81
2022/11/01 06:36:23;;;;;;;;;;;;;;;10.10;100.00;100363.66;5019108;28;19928;-82
2022/11/01 06:38:48;;;;;;;;;;;;;;;10.06;100.00;100363.72;4987088;28;20393;-82
2022/11/01 06:41:14;;;;;;;;;;;;;;;10.04;100.00;100366.13;4981524;28;19980;-81
2022/11/01 06:43:39;;;;;;;;;;;;;;;10.08;100.00;100371.59;4979098;28;19980;-80
2022/11/01 06:46:05;;;;;;;;;;;;;;;10.09;100.00;100368.41;4979262;28;19944;-81
2022/11/01 06:48:30;;;;;;;;;;;;;;;10.10;100.00;100369.19;4972324;28;19917;-82
2022/11/01 06:50:56;;;;;;;;;;;;;;;10.14;100.00;100370.69;4980585;28;19929;-81
2022/11/01 06:53:22;;;;;;;;;;;;;;;10.12;100.00;100381.41;4989063;28;19972;-81
2022/11/01 06:55:47;;;;;;;;;;;;;;;10.10;100.00;100370.00;4973821;28;19918;-81
2022/11/01 06:58:12;;;;;;;;;;;;;;;10.14;100.00;100356.84;4987241;28;20343;-81
2022/11/01 07:00:38;;;;;;;;;;;;;;;10.15;100.00;100372.28;4986223;28;20055;-81
2022/11/01 07:03:04;;;;;;;;;;;;;;;10.17;100.00;100375.41;4968019;28;19921;-81
2022/11/01 07:05:31;;;;;;;;;;;;;;;10.16;100.00;100376.63;4982374;28;19917;-81
2022/11/01 07:07:56;;;;;;;;;;;;;;;10.16;100.00;100384.16;4985750;28;20004;-81
2022/11/01 07:10:22;;;;;;;;;;;;;;;10.16;100.00;100373.06;4982840;28;20285;-82
2022/11/01 07:12:47;;;;;;;;;;;;;;;10.18;100.00;100368.66;4984591;28;19925;-80
2022/11/01 07:15:13;;;;;;;;;;;;;;;10.26;100.00;100366.53;4985047;28;19917;-81
2022/11/01 07:17:38;;;;;;;;;;;;;;;10.22;100.00;100371.38;4982625;28;19929;-81
2022/11/01 07:20:04;;;;;;;;;;;;;;;10.24;100.00;100369.72;4982198;28;20013;-81
2022/11/01 07:22:29;;;;;;;;;;;;;;;10.26;100.00;100378.41;4980297;28;19918;-80
2022/11/01 07:24:55;;;;;;;;;;;;;;;10.25;100.00;100376.06;4970222;28;19925;-82
2022/11/01 07:27:21;;;;;;;;;;;;;;;10.35;100.00;100380.63;4986853;28;20008;-79
2022/11/01 07:29:46;;;;;;;;;;;;;;;10.38;100.00;100378.97;4990068;28;20309;-81
2022/11/01 07:32:11;;;;;;;;;;;;;;;10.36;100.00;100375.81;4987198;28;19959;-81
2022/11/01 07:34:37;;;;;;;;;;;;;;;10.36;100.00;100375.81;4988224;28;19926;-81
2022/11/01 07:37:02;;;;;;;;;;;;;;;10.37;100.00;100366.31;4989756;28;19917;-81
2022/11/01 07:39:27;;;;;;;;;;;;;;;10.38;100.00;100365.88;4987072;28;19918;-80
2022/11/01 07:41:53;;;;;;;;;;;;;;;10.40;100.00;100371.00;4987653;28;19924;-80
2022/11/01 07:44:18;;;;;;;;;;;;;;;10.39;100.00;100377.75;4988987;28;19926;-81
2022/11/01 07:46:44;;;;;;;;;;;;;;;10.34;100.00;100373.50;4988809;28;19925;-81
2022/11/01 07:49:09;;;;;;;;;;;;;;;10.42;100.00;100374.13;4973208;28;19909;-81
2022/11/01 07:51:36;;;;;;;;;;;;;;;10.47;100.00;100370.88;4989281;28;19921;-81
2022/11/01 07:54:01;;;;;;;;;;;;;;;10.47;100.00;100370.88;4990577;28;20008;-81
2022/11/01 07:56:27;;;;;;;;;;;;;;;10.44;100.00;100363.38;4989176;28;20018;-81
2022/11/01 07:58:53;;;;;;;;;;;;;;;10.48;100.00;100356.56;4962495;28;20020;-80
2022/11/01 08:01:18;;;;;;;;;;;;;;;10.53;100.00;100353.28;4992450;28;19944;-81
2022/11/01 08:03:44;;;;;;;;;;;;;;;10.54;100.00;100340.19;4993210;28;20204;-82
2022/11/01 08:06:09;;;;;;;;;;;;;;;10.55;100.00;100361.19;4988864;28;19929;-82
2022/11/01 08:08:35;;;;;;;;;;;;;;;10.58;100.00;100361.09;4985970;28;19918;-82
2022/11/01 08:11:00;;;;;;;;;;;;;;;10.65;100.00;100365.72;5005983;28;19913;-82
2022/11/01 08:13:25;;;;;;;;;;;;;;;10.65;100.00;100362.94;4987440;28;19921;-84
2022/11/01 08:15:51;;;;;;;;;;;;;;;10.71;100.00;100364.78;4987036;28;19957;-82
2022/11/01 08:18:17;;;;;;;;;;;;;;;10.68;100.00;100364.84;5005730;28;19936;-82
2022/11/01 08:20:43;;;;;;;;;;;;;;;10.69;100.00;100366.41;4990841;28;19933;-82
2022/11/01 08:23:08;;;;;;;;;;;;;;;10.74;100.00;100366.69;4986447;28;19918;-82
2022/11/01 08:25:34;;;;;;;;;;;;;;;10.79;100.00;100365.41;4984356;28;19922;-82
2022/11/01 08:28:06;;;;;;;;;;;;;;;10.82;100.00;100364.53;4989334;28;19956;-82
2022/11/01 08:30:32;;;;;;;;;;;;;;;10.85;100.00;100363.66;4988044;28;19928;-82
2022/11/01 08:32:58;;;;;;;;;;;;;;;10.91;100.00;100369.50;4972774;28;19925;-82
2022/11/01 08:35:24;;;;;;;;;;;;;;;10.99;100.00;100368.91;4970579;28;20127;-82
2022/11/01 08:37:49;;;;;;;;;;;;;;;10.94;100.00;100366.63;4983653;28;20165;-82
2022/11/01 08:40:15;;;;;;;;;;;;;;;10.96;100.00;100375.31;4998079;28;19921;-82
2022/11/01 08:42:40;;;;;;;;;;;;;;;10.95;100.00;100373.75;4982927;28;19918;-82
2022/11/01 08:45:06;;;;;;;;;;;;;;;11.00;100.00;100376.00;4998819;28;19917;-83
2022/11/01 08:47:31;;;;;;;;;;;;;;;11.03;100.00;100366.84;5003196;28;19925;-83
2022/11/01 08:49:57;;;;;;;;;;;;;;;11.07;100.00;100361.19;5009888;28;19976;-83
2022/11/01 08:52:22;;;;;;;;;;;;;;;11.16;100.00;100364.16;4985621;28;19925;-81
2022/11/01 08:54:48;;;;;;;;;;;;;;;11.21;100.00;100364.41;4981769;28;19973;-81
2022/11/01 08:57:14;;;;;;;;;;;;;;;11.31;100.00;100367.38;4982760;28;20298;-82
2022/11/01 08:59:40;;;;;;;;;;;;;;;11.30;100.00;100365.78;4986868;28;19945;-81
2022/11/01 09:02:05;;;;;;;;;;;;;;;11.35;100.00;100373.59;4966867;28;19929;-82
2022/11/01 09:04:31;;;;;;;;;;;;;;;11.36;100.00;100373.19;4980827;28;19914;-81
2022/11/01 09:06:56;;;;;;;;;;;;;;;11.42;100.00;100374.22;4999186;28;20252;-82
2022/11/01 09:09:22;;;;;;;;;;;;;;;11.49;100.00;100376.03;4985944;28;19976;-81
2022/11/01 09:11:47;;;;;;;;;;;;;;;11.59;100.00;100372.22;4983076;28;20304;-81
2022/11/01 09:14:12;;;;;;;;;;;;;;;11.58;100.00;100371.44;4986338;28;19925;-81
2022/11/01 09:16:38;;;;;;;;;;;;;;;11.62;100.00;100371.34;4970866;28;20073;-81
2022/11/01 09:19:03;;;;;;;;;;;;;;;11.64;100.00;100369.69;5001429;28;19992;-81
2022/11/01 09:21:28;;;;;;;;;;;;;;;11.75;100.00;100375.00;4982077;28;19917;-81
2022/11/01 09:23:54;;;;;;;;;;;;;;;11.83;100.00;100375.59;4981706;28;19921;-81
2022/11/01 09:26:19;;;;;;;;;;;;;;;11.82;100.00;100355.34;4985579;28;19925;-81
2022/11/01 09:28:45;;;;;;;;;;;;;;;11.88;100.00;100361.16;4982377;28;19924;-81
2022/11/01 09:31:10;;;;;;;;;;;;;;;11.95;100.00;100372.09;4987774;28;19920;-81
2022/11/01 09:33:35;;;;;;;;;;;;;;;12.00;100.00;100369.56;4969400;28;20028;-81
2022/11/01 09:36:01;;;;;;;;;;;;;;;12.11;100.00;100364.47;4986048;28;19918;-81
2022/11/01 09:38:26;;;;;;;;;;;;;;;12.09;100.00;100366.16;5002632;28;19922;-81
2022/11/01 09:41:03;;;;;;;;;;;;;;;12.13;100.00;100369.63;4982759;28;19925;-81
2022/11/01 09:43:28;;;;;;;;;;;;;;;12.18;100.00;100369.06;5000861;28;19929;-81
2022/11/01 09:45:57;;;;;;;;;;;;;;;12.30;100.00;100359.19;4988283;28;20001;-81
2022/11/01 09:48:24;;;;;;;;;;;;;;;12.36;100.00;100360.22;4985049;28;19922;-81
2022/11/01 09:50:49;;;;;;;;;;;;;;;12.42;100.00;100355.66;4981806;28;19914;-81
2022/11/01 09:53:22;;;;;;;;;;;;;;;12.50;100.00;100345.88;4982589;28;19922;-81
2022/11/01 09:55:54;;;;;;;;;;;;;;;12.56;100.00;100352.47;4972433;28;19921;-81
2022/11/01 09:58:19;;;;;;;;;;;;;;;12.58;100.00;100352.78;4979765;28;20361;-81
2022/11/01 10:00:47;;;;;;;;;;;;;;;12.76;100.00;100346.69;5000193;28;19979;-81
2022/11/01 10:03:14;;;;;;;;;;;;;;;12.88;100.00;100349.50;4997872;28;20004;-82
2022/11/01 10:05:58;;;;;;;;;;;;;;;12.88;100.00;100348.72;4984031;28;19932;-81
2022/11/01 10:08:42;;;;;;;;;;;;;;;12.98;100.00;100348.38;5001392;28;20431;-81
2022/11/01 10:11:17;;;;;;;;;;;;;;;13.04;100.00;100343.03;4988372;28;19917;-81
2022/11/01 10:13:55;;;;;;;;;;;;;;;13.13;100.00;100342.38;4984251;28;19922;-81
2022/11/01 10:16:29;;;;;;;;;;;;;;;13.15;100.00;100328.78;5000166;28;19996;-81
2022/11/01 10:19:02;;;;;;;;;;;;;;;13.21;100.00;100335.34;4981685;28;19929;-81
2022/11/01 10:21:27;;;;;;;;;;;;;;;13.40;100.00;100334.31;4983355;28;20400;-81
2022/11/01 10:23:53;;;;;;;;;;;;;;;13.59;100.00;100333.25;4986089;28;19961;-81
2022/11/01 10:26:25;;;;;;;;;;;;;;;13.79;100.00;100333.75;4983474;28;19918;-81
2022/11/01 10:28:57;;;;;;;;;;;;;;;13.87;100.00;100317.56;4979910;28;19925;-81
2022/11/01 10:31:23;;;;;;;;;;;;;;;14.02;100.00;100319.41;4996859;28;20396;-81
2022/11/01 10:33:58;;;;;;;;;;;;;;;14.18;100.00;100320.44;4964556;28;19918;-82
2022/11/01 10:36:28;;;;;;;;;;;;;;;14.17;100.00;100313.28;4982168;28;20016;-82
2022/11/01 10:38:59;;;;;;;;;;;;;;;14.32;100.00;100308.72;4984158;28;19922;-82
2022/11/01 10:41:35;;;;;;;;;;;;;;;14.50;100.00;100297.69;4983739;28;20306;-83
2022/11/01 10:44:02;;;;;;;;;;;;;;;14.83;100.00;100311.97;4977298;28;20025;-82
2022/11/01 10:46:30;;;;;;;;;;;;;;;15.14;100.00;100300.72;4970059;28;19914;-83
2022/11/01 10:49:15;;;;;;;;;;;;;;;15.23;100.00;100303.56;4987235;28;20044;-83
2022/11/01 10:51:40;;;;;;;;;;;;;;;15.35;100.00;100311.03;5003452;28;19929;-83
2022/11/01 10:54:06;;;;;;;;;;;;;;;15.50;100.00;100289.66;4987263;28;19918;-82
2022/11/01 10:56:33;;;;;;;;;;;;;;;15.60;100.00;100299.59;4988692;28;20389;-82
2022/11/01 10:59:02;;;;;;;;;;;;;;;15.66;100.00;100297.72;4988375;28;20301;-83
2022/11/01 11:01:29;;;;;;;;;;;;;;;15.77;100.00;100298.03;4989306;28;20365;-84
2022/11/01 11:03:55;;;;;;;;;;;;;;;15.97;100.00;100294.78;4988883;28;20373;-85
2022/11/01 11:06:21;;;;;;;;;;;;;;;16.32;100.00;100303.59;4990143;28;21356;-84
2022/11/01 11:08:48;;;;;;;;;;;;;;;16.34;100.00;100304.66;4988011;28;20008;-84
2022/11/01 11:11:14;;;;;;;;;;;;;;;16.60;100.00;100307.91;4970379;28;19969;-85
2022/11/01 11:13:41;;;;;;;;;;;;;;;16.57;100.00;100296.88;5001792;28;20226;-85
2022/11/01 11:16:06;;;;;;;;;;;;;;;16.78;100.00;100301.47;4970730;28;19928;-84
2022/11/01 11:18:37;;;;;;;;;;;;;;;17.14;100.00;100300.50;4970171;28;19922;-85
2022/11/01 11:21:05;;;;;;;;;;;;;;;17.21;100.00;100306.53;4984842;28;19930;-85
2022/11/01 11:23:32;;;;;;;;;;;;;;;17.48;100.00;100302.75;4983945;28;20294;-85
2022/11/01 11:26:01;;;;;;;;;;;;;;;17.68;100.00;100294.53;4985279;28;20016;-85
2022/11/01 11:28:29;;;;;;;;;;;;;;;17.61;100.00;100294.91;4983106;28;19921;-84
2022/11/01 11:30:54;;;;;;;;;;;;;;;17.75;100.00;100281.41;4998671;28;19918;-84
2022/11/01 11:33:20;;;;;;;;;;;;;;;17.76;100.00;100288.56;4984632;28;19996;-84
2022/11/01 11:35:55;;;;;;;;;;;;;;;17.45;100.00;100292.50;4979272;28;20072;-84
2022/11/01 11:38:38;;;;;;;;;;;;;;;17.63;100.00;100288.84;4986565;28;19932;-85
2022/11/01 11:41:03;;;;;;;;;;;;;;;17.58;100.00;100290.28;4975794;28;19922;-84
2022/11/01 11:43:36;;;;;;;;;;;;;;;17.67;100.00;100284.56;4989710;28;20024;-84
2022/11/01 11:46:03;;;;;;;;;;;;;;;17.82;100.00;100284.63;4968675;28;20016;-85
2022/11/01 11:48:28;;;;;;;;;;;;;;;17.93;100.00;100276.41;4986137;28;19914;-85
2022/11/01 11:51:03;;;;;;;;;;;;;;;17.99;100.00;100279.31;4987771;28;20289;-86
2022/11/01 11:53:29;;;;;;;;;;;;;;;17.99;100.00;100279.31;4983599;28;20399;-85
2022/11/01 11:55:58;;;;;;;;;;;;;;;18.13;100.00;100284.94;4992702;28;20412;-84
2022/11/01 11:58:39;;;;;;;;;;;;;;;18.13;100.00;100272.94;4992234;28;19921;-85
2022/11/01 12:01:21;;;;;;;;;;;;;;;18.34;100.00;100271.00;4990695;28;20049;-86
2022/11/01 12:03:48;;;;;;;;;;;;;;;18.63;100.00;100277.41;4968311;28;20393;-85
2022/11/01 12:06:16;;;;;;;;;;;;;;;18.87;100.00;100276.47;4993199;28;19917;-85
2022/11/01 12:08:43;;;;;;;;;;;;;;;18.72;100.00;100278.56;4973504;28;19930;-85
2022/11/01 12:11:09;;;;;;;;;;;;;;;19.05;100.00;100279.03;4968117;28;19922;-86
2022/11/01 12:13:40;;;;;;;;;;;;;;;19.10;100.00;100269.91;4982472;28;19918;-85
2022/11/01 12:16:06;;;;;;;;;;;;;;;19.26;100.00;100277.81;4976108;28;20008;-84
2022/11/01 12:18:31;;;;;;;;;;;;;;;19.28;100.00;100277.31;4998527;28;20344;-84
2022/11/01 12:20:57;;;;;;;;;;;;;;;19.00;100.00;100277.72;4985332;28;20068;-84
2022/11/01 12:23:27;;;;;;;;;;;;;;;18.84;100.00;100283.09;4998451;28;19928;-84
2022/11/01 12:25:53;;;;;;;;;;;;;;;19.07;100.00;100282.94;4996241;28;20369;-83
2022/11/01 12:28:20;;;;;;;;;;;;;;;19.02;100.00;100280.81;4961289;28;19924;-83
2022/11/01 12:30:47;;;;;;;;;;;;;;;18.85;100.00;100276.19;4980796;28;20078;-83
2022/11/01 12:33:16;;;;;;;;;;;;;;;19.07;100.00;100287.78;4965333;28;20293;-84
2022/11/01 12:35:41;;;;;;;;;;;;;;;19.26;100.00;100283.44;4991769;28;19922;-84